MHLM/SAP METAR and TAF weather

Enter ICAO airport designator
Station Type Date Time Source
MHLM METAR 2021/09/16 21:31 UTC NOAA

MHLM 162131Z 09013KT 9999 TS FEW030CB SCT200 34/21 Q1008 A2977 NOSIG


Station Type Date Time Source
MHLM Decoded METAR 2021/09/16 21:31 UTC NOAA

La Mesa San Pedro Sula , Honduras (MHLM) 15-27N 087-56W 31M
Sep 16, 2021 - 05:31 PM EDT / 2021.09.16 2131 UTC
Wind: from the E (090 degrees) at 15 MPH (13 KT):0
Visibility: greater than 7 mile(s):0
Sky conditions: partly cloudy
Weather: thunder; Cumulonimbus clouds observed
Temperature: 93 F (34 C)
Heat index: 98.4 F (36.9 C):1
Dew Point: 69 F (21 C)
Relative Humidity: 46%
Pressure (altimeter): 29.77 in. Hg (1008 hPa)
ob: MHLM 162131Z 09013KT 9999 TS FEW030CB SCT200 34/21 Q1008 A2977 NOSIG
cycle: 21

Station Type Date Time Source
MHLM TAF 2021/09/16 18:09 UTC NOAA

TAF MHLM 161705Z 1618/1718 23004KT 9999 FEW028 TX36/1620Z TN23/1712Z
BECMG 1620/1622 04010KT
BECMG 1701/1703 22005KT 8000 TSVCSH SCT028CB
BECMG 1706/1708 9999 NSW SCT026

Example: see airport list